createdAt,value
2018-07-30T04:28:12.071Z,22.30
2018-07-30T04:33:08.858Z,22.20
2018-07-30T04:38:06.624Z,22.20
2018-07-30T04:43:01.692Z,22.30
2018-07-30T04:47:57.416Z,22.30
2018-07-30T04:53:38.176Z,22.50
2018-07-30T05:03:38.541Z,22.50
2018-07-30T05:10:13.996Z,22.50
2018-07-30T05:14:45.781Z,22.60
2018-07-30T05:18:56.044Z,22.60
2018-07-30T05:24:06.416Z,22.60
2018-07-30T05:29:10.527Z,22.60
2018-07-30T05:35:01.241Z,22.60
2018-07-30T05:40:06.537Z,22.50
2018-07-30T05:45:02.759Z,22.50
2018-07-30T05:49:58.417Z,22.60
2018-07-30T05:54:54.346Z,22.70
2018-07-30T05:59:50.253Z,23.00
2018-07-30T06:04:46.153Z,23.30
2018-07-30T06:09:42.070Z,23.70
2018-07-30T06:14:35.010Z,24.10
2018-07-30T06:19:30.504Z,24.40
2018-07-30T06:24:23.348Z,24.50
2018-07-30T06:29:16.830Z,24.60
2018-07-30T06:34:10.240Z,24.70
2018-07-30T06:39:03.412Z,24.80
2018-07-30T06:43:56.909Z,25.00
2018-07-30T06:48:50.405Z,25.20
2018-07-30T06:53:43.729Z,25.30
2018-07-30T06:58:36.788Z,25.40
2018-07-30T07:03:30.379Z,25.40
2018-07-30T07:08:23.771Z,25.60
2018-07-30T07:13:17.378Z,25.70
2018-07-30T07:18:10.897Z,25.90
2018-07-30T07:23:04.358Z,26.20
2018-07-30T07:27:57.774Z,26.40
2018-07-30T07:32:50.954Z,26.30
2018-07-30T07:37:44.166Z,26.20
2018-07-30T07:42:37.456Z,26.20
2018-07-30T07:47:30.676Z,26.30
2018-07-30T07:52:24.075Z,26.50
2018-07-30T07:57:18.879Z,27.00
2018-07-30T08:02:12.315Z,27.60
2018-07-30T08:07:06.141Z,27.90
2018-07-30T08:11:59.677Z,28.00
2018-07-30T08:16:53.137Z,28.30
2018-07-30T08:21:46.715Z,28.70
2018-07-30T08:26:40.305Z,28.90
2018-07-30T08:31:33.908Z,29.40
2018-07-30T08:36:28.428Z,29.70
2018-07-30T08:41:22.041Z,30.50
2018-07-30T08:46:15.725Z,30.80
2018-07-30T08:51:09.533Z,31.00
2018-07-30T08:56:03.315Z,30.90
2018-07-30T09:00:56.988Z,31.20
2018-07-30T09:05:50.843Z,31.30
2018-07-30T09:10:44.615Z,31.30
2018-07-30T09:15:38.015Z,31.40
2018-07-30T09:20:31.640Z,31.30
2018-07-30T09:25:25.775Z,31.60
2018-07-30T09:30:19.435Z,31.90
2018-07-30T09:35:13.456Z,32.40
2018-07-30T09:40:08.157Z,32.90
2018-07-30T09:45:02.768Z,33.00
2018-07-30T09:49:57.205Z,33.50
2018-07-30T09:54:50.510Z,33.60
2018-07-30T09:59:44.128Z,33.90
2018-07-30T10:04:37.348Z,33.60
2018-07-30T10:09:30.684Z,33.30
2018-07-30T10:14:24.260Z,33.40
2018-07-30T10:19:18.183Z,33.80
2018-07-30T10:24:15.127Z,34.20
2018-07-30T10:29:07.347Z,33.90
2018-07-30T10:34:01.719Z,33.10
2018-07-30T10:38:54.698Z,32.70
2018-07-30T10:43:47.980Z,32.50
2018-07-30T10:48:44.564Z,32.40
2018-07-30T10:53:37.383Z,32.70
2018-07-30T10:58:31.509Z,33.20
2018-07-30T11:03:25.228Z,33.60
2018-07-30T11:08:19.031Z,34.50
2018-07-30T11:13:14.657Z,34.70
2018-07-30T11:18:08.404Z,34.50
2018-07-30T11:23:02.572Z,34.70
2018-07-30T11:27:58.758Z,35.10
2018-07-30T11:32:52.564Z,35.20
2018-07-30T11:37:46.444Z,35.50
2018-07-30T11:42:41.885Z,35.70
2018-07-30T11:47:37.347Z,35.50
2018-07-30T11:52:33.159Z,36.00
2018-07-30T11:57:28.676Z,36.60
2018-07-30T12:02:22.140Z,37.10
2018-07-30T12:07:19.911Z,37.00
2018-07-30T12:12:14.414Z,36.20
2018-07-30T12:17:08.807Z,35.50
2018-07-30T12:22:03.615Z,34.70
2018-07-30T12:26:58.592Z,34.00
2018-07-30T12:31:53.683Z,33.70
2018-07-30T12:36:47.179Z,34.20
2018-07-30T12:41:41.839Z,34.30
2018-07-30T12:46:34.561Z,34.50
2018-07-30T12:51:31.330Z,34.80
2018-07-30T12:56:27.648Z,34.70
2018-07-30T13:01:24.048Z,35.30
2018-07-30T13:06:20.386Z,35.80
2018-07-30T13:11:14.269Z,35.90
2018-07-30T13:16:10.247Z,36.50
2018-07-30T13:21:06.690Z,36.20
2018-07-30T13:26:01.618Z,36.50
2018-07-30T13:30:56.497Z,35.90
2018-07-30T13:35:50.929Z,35.30
2018-07-30T13:40:45.665Z,34.80
2018-07-30T13:45:39.911Z,34.30
2018-07-30T13:50:34.889Z,34.20
2018-07-30T13:55:29.504Z,34.10
2018-07-30T14:00:22.446Z,33.90
2018-07-30T14:05:16.315Z,34.00
2018-07-30T14:10:11.835Z,34.20
2018-07-30T14:15:05.073Z,34.20
2018-07-30T14:20:02.406Z,34.60
2018-07-30T14:24:58.253Z,35.60
2018-07-30T14:29:53.957Z,35.70
2018-07-30T14:34:49.980Z,35.70
2018-07-30T14:39:44.845Z,35.60
2018-07-30T14:44:40.141Z,35.40
2018-07-30T14:49:34.928Z,35.30
2018-07-30T14:54:30.469Z,34.70
2018-07-30T14:59:26.095Z,34.60
2018-07-30T15:04:22.049Z,35.10
2018-07-30T15:09:17.652Z,35.50
2018-07-30T15:14:13.814Z,35.90
2018-07-30T15:19:12.115Z,36.20
2018-07-30T15:24:07.605Z,36.30
2018-07-30T15:29:03.739Z,36.30
2018-07-30T15:33:59.301Z,36.30
2018-07-30T15:38:53.937Z,35.70
2018-07-30T15:43:49.604Z,35.30
2018-07-30T15:48:45.247Z,35.10
2018-07-30T15:53:42.988Z,34.90
2018-07-30T15:58:37.101Z,34.70
2018-07-30T16:03:32.028Z,34.70
2018-07-30T16:08:26.112Z,34.30
2018-07-30T16:13:21.357Z,33.80
2018-07-30T16:18:17.422Z,33.60
2018-07-30T16:23:12.457Z,33.50
2018-07-30T16:28:06.668Z,33.60
2018-07-30T16:33:02.684Z,33.60
2018-07-30T16:37:57.543Z,33.50
2018-07-30T16:42:55.800Z,33.50
2018-07-30T16:47:48.234Z,33.60
2018-07-30T16:52:45.646Z,33.40
2018-07-30T16:57:37.864Z,33.30
2018-07-30T17:02:34.017Z,33.40
2018-07-30T17:07:28.929Z,33.40
2018-07-30T17:12:22.949Z,33.40
2018-07-30T17:17:17.458Z,33.30
2018-07-30T17:22:10.385Z,33.20
2018-07-30T17:27:03.762Z,33.10
2018-07-30T17:31:57.241Z,33.10
2018-07-30T17:36:52.859Z,33.10
2018-07-30T17:41:48.132Z,33.10
2018-07-30T17:46:41.706Z,32.90
2018-07-30T17:51:36.004Z,32.70
2018-07-30T17:56:29.115Z,32.60
2018-07-30T18:01:24.562Z,32.50
2018-07-30T18:06:20.047Z,32.20
2018-07-30T18:11:15.210Z,32.10
2018-07-30T18:16:10.291Z,32.00
2018-07-30T18:21:03.887Z,32.00
2018-07-30T18:25:58.257Z,31.80
2018-07-30T18:30:51.651Z,31.70
2018-07-30T18:35:45.040Z,31.60
2018-07-30T18:40:38.638Z,31.50
2018-07-30T18:45:32.157Z,31.30
2018-07-30T18:50:25.391Z,31.10
2018-07-30T18:55:20.408Z,30.90
2018-07-30T19:00:13.672Z,30.70
2018-07-30T19:05:06.950Z,30.60
2018-07-30T19:10:00.313Z,30.50
2018-07-30T19:14:53.456Z,30.20
2018-07-30T19:19:46.492Z,30.00
2018-07-30T19:24:40.005Z,29.70
2018-07-30T19:29:33.456Z,29.60
2018-07-30T19:34:26.957Z,29.40
2018-07-30T19:39:20.329Z,29.30
2018-07-30T19:44:14.082Z,29.20
2018-07-30T19:49:08.443Z,29.00
2018-07-30T19:54:01.445Z,28.90
2018-07-30T19:58:55.864Z,28.80
2018-07-30T20:03:49.561Z,28.70
2018-07-30T20:08:42.770Z,28.60
2018-07-30T20:13:36.128Z,28.50
2018-07-30T20:18:29.432Z,28.40
2018-07-30T20:23:22.673Z,28.20
